Time;durP1;ratioP1;P1;durP2;ratioP2;P2;SDS_P1;SDS_P2;PMS_P1;PMS_P2;Temp;Humidity;BMP_temperature;BMP_pressure;BME280_temperature;BME280_humidity;BME280_pressure;Samples;Min_cycle;Max_cycle;Signal;HPM_P1;HPM_P2
2021/09/20 00:00:26;;;;;;;0.80;0.70;;;;;;;13.83;100.00;-21057.84;6277135;22;20436;-71
2021/09/20 00:02:53;;;;;;;0.70;0.60;;;;;;;13.80;100.00;-21057.03;6278342;22;20419;-71
2021/09/20 00:05:20;;;;;;;0.70;0.60;;;;;;;13.73;100.00;-21055.09;6251050;22;20434;-71
2021/09/20 00:07:47;;;;;;;0.70;0.70;;;;;;;13.77;100.00;-21056.34;6250967;22;20432;-71
2021/09/20 00:10:15;;;;;;;0.70;0.60;;;;;;;13.63;100.00;-21052.34;6277848;22;20754;-70
2021/09/20 00:12:42;;;;;;;1.00;0.90;;;;;;;13.46;100.00;-21047.94;6250510;22;20435;-71
2021/09/20 00:15:10;;;;;;;0.70;0.63;;;;;;;13.33;100.00;-21044.34;6250392;22;20746;-71
2021/09/20 00:17:39;;;;;;;0.80;0.70;;;;;;;13.37;100.00;-21045.44;6278709;22;20388;-71
2021/09/20 00:20:09;;;;;;;0.70;0.60;;;;;;;13.29;100.00;-21043.38;6277651;22;20387;-71
2021/09/20 00:22:36;;;;;;;0.80;0.70;;;;;;;13.24;100.00;-21041.84;6250435;22;20419;-71
2021/09/20 00:25:07;;;;;;;0.70;0.70;;;;;;;13.15;100.00;-21039.38;6250174;22;20412;-71
2021/09/20 00:27:36;;;;;;;0.80;0.70;;;;;;;13.09;100.00;-21037.84;6250626;22;20381;-70
2021/09/20 00:30:14;;;;;;;0.80;0.80;;;;;;;12.97;100.00;-21034.53;6251147;22;20876;-70
2021/09/20 00:33:10;;;;;;;0.70;0.60;;;;;;;12.93;100.00;-21033.59;6256432;22;20378;-71
2021/09/20 00:35:44;;;;;;;0.70;0.60;;;;;;;12.84;100.00;-21031.09;6251496;22;20421;-71
2021/09/20 00:38:17;;;;;;;0.80;0.80;;;;;;;12.77;100.00;-21029.16;6251086;22;20412;-71
2021/09/20 00:40:47;;;;;;;0.70;0.60;;;;;;;12.69;100.00;-21027.09;6252255;22;20460;-70
2021/09/20 00:43:24;;;;;;;0.70;0.60;;;;;;;12.71;100.00;-21027.50;6250779;22;20400;-70
2021/09/20 00:46:04;;;;;;;0.70;0.60;;;;;;;12.80;100.00;-21030.00;6252057;22;20415;-71
2021/09/20 00:48:37;;;;;;;0.70;0.60;;;;;;;12.85;100.00;-21031.38;6252865;22;20388;-70
2021/09/20 00:51:06;;;;;;;0.80;0.70;;;;;;;12.92;100.00;-21033.16;6249868;22;20416;-72
2021/09/20 00:53:35;;;;;;;0.70;0.67;;;;;;;12.85;100.00;-21031.38;6249051;22;20410;-69
2021/09/20 00:56:07;;;;;;;0.80;0.80;;;;;;;12.88;100.00;-21032.06;6251245;22;20698;-72
2021/09/20 00:58:44;;;;;;;0.70;0.67;;;;;;;12.91;100.00;-21033.03;6251858;22;20375;-72
2021/09/20 01:01:16;;;;;;;0.80;0.80;;;;;;;12.93;100.00;-21033.44;6227358;22;20405;-72
2021/09/20 01:03:53;;;;;;;1.13;1.03;;;;;;;12.80;100.00;-21030.00;6250975;22;20425;-71
2021/09/20 01:06:23;;;;;;;0.80;0.70;;;;;;;12.85;100.00;-21031.38;6251532;22;20965;-72
2021/09/20 01:09:03;;;;;;;0.70;0.60;;;;;;;12.71;100.00;-21027.50;6249386;22;20431;-71
2021/09/20 01:11:38;;;;;;;0.80;0.70;;;;;;;12.63;100.00;-21025.31;6249442;22;20422;-71
2021/09/20 01:14:11;;;;;;;0.70;0.60;;;;;;;12.60;100.00;-21024.47;6251186;22;20379;-72
2021/09/20 01:17:07;;;;;;;0.70;0.60;;;;;;;12.48;100.00;-21021.44;6255087;22;20386;-71
2021/09/20 01:19:43;;;;;;;1.63;1.53;;;;;;;12.50;100.00;-21022.00;6252497;22;20405;-71
2021/09/20 01:22:18;;;;;;;0.77;0.73;;;;;;;12.51;100.00;-21022.13;6277374;22;20391;-72
2021/09/20 01:24:48;;;;;;;0.70;0.60;;;;;;;12.41;100.00;-21019.38;6250503;22;20371;-71
2021/09/20 01:27:17;;;;;;;0.70;0.60;;;;;;;12.36;100.00;-21018.13;6277727;22;20389;-71
2021/09/20 01:29:44;;;;;;;0.70;0.60;;;;;;;12.34;100.00;-21017.56;6276321;22;20840;-71
2021/09/20 01:32:12;;;;;;;0.70;0.60;;;;;;;12.31;100.00;-21016.75;6277227;22;20383;-71
2021/09/20 01:34:40;;;;;;;0.70;0.60;;;;;;;12.24;100.00;-21014.94;6276635;22;20713;-71
2021/09/20 01:37:07;;;;;;;1.50;1.40;;;;;;;12.14;100.00;-21012.06;6250796;22;20401;-71
2021/09/20 01:39:36;;;;;;;0.70;0.70;;;;;;;12.21;100.00;-21014.13;6276084;22;20740;-71
2021/09/20 01:42:05;;;;;;;0.80;0.70;;;;;;;12.22;100.00;-21014.25;6250076;22;20434;-71
2021/09/20 01:44:33;;;;;;;0.70;0.60;;;;;;;12.13;100.00;-21011.91;6277063;22;20422;-71
2021/09/20 01:47:00;;;;;;;0.80;0.70;;;;;;;12.07;100.00;-21010.41;6249667;22;20428;-71
2021/09/20 01:49:27;;;;;;;1.20;0.87;;;;;;;11.95;100.00;-21007.09;6276891;22;20467;-71
2021/09/20 01:51:55;;;;;;;0.70;0.60;;;;;;;11.87;100.00;-21004.75;6276382;22;20393;-71
2021/09/20 01:54:23;;;;;;;0.70;0.60;;;;;;;11.84;100.00;-21004.19;6276030;22;20751;-73
2021/09/20 01:56:50;;;;;;;0.70;0.70;;;;;;;11.92;100.00;-21006.13;6277320;22;20448;-73
2021/09/20 01:59:21;;;;;;;1.03;0.87;;;;;;;11.85;100.00;-21004.31;6277002;22;20855;-72
2021/09/20 02:01:48;;;;;;;0.70;0.60;;;;;;;11.81;100.00;-21003.22;6276786;22;20405;-72
2021/09/20 02:04:18;;;;;;;0.70;0.70;;;;;;;11.69;100.00;-20999.91;6249421;22;20489;-71
2021/09/20 02:06:45;;;;;;;0.70;0.60;;;;;;;11.70;100.00;-21000.31;6224429;22;20430;-71
2021/09/20 02:09:12;;;;;;;0.70;0.60;;;;;;;11.63;100.00;-20998.25;6275915;22;20446;-71
2021/09/20 02:11:40;;;;;;;0.70;0.60;;;;;;;11.64;100.00;-20998.50;6275805;22;20798;-71
2021/09/20 02:14:09;;;;;;;0.70;0.60;;;;;;;11.65;100.00;-20998.78;6276580;22;20778;-72
2021/09/20 02:16:37;;;;;;;0.77;0.70;;;;;;;11.61;100.00;-20997.81;6249937;22;20417;-72
2021/09/20 02:19:05;;;;;;;0.70;0.60;;;;;;;11.57;100.00;-20996.84;6275781;22;20371;-72
2021/09/20 02:21:34;;;;;;;0.80;0.80;;;;;;;11.53;100.00;-20995.63;6276423;22;20440;-71
2021/09/20 02:24:01;;;;;;;0.70;0.60;;;;;;;11.56;100.00;-20996.59;6275260;22;20413;-72
2021/09/20 02:26:30;;;;;;;0.80;0.70;;;;;;;11.59;100.00;-20997.28;6249246;22;20472;-71
2021/09/20 02:28:58;;;;;;;0.80;0.70;;;;;;;11.63;100.00;-20998.38;6249161;22;20410;-71
2021/09/20 02:31:25;;;;;;;0.70;0.60;;;;;;;11.56;100.00;-20996.59;6276922;22;20386;-72
2021/09/20 02:33:53;;;;;;;0.70;0.60;;;;;;;11.61;100.00;-20997.81;6249698;22;20375;-72
2021/09/20 02:36:20;;;;;;;0.70;0.60;;;;;;;11.65;100.00;-20998.78;6249518;22;20402;-73
2021/09/20 02:38:47;;;;;;;0.70;0.60;;;;;;;11.57;100.00;-20996.72;6249318;22;20429;-73
2021/09/20 02:41:15;;;;;;;0.70;0.70;;;;;;;11.55;100.00;-20996.31;6249256;22;20755;-71
2021/09/20 02:43:43;;;;;;;0.70;0.60;;;;;;;11.42;100.00;-20992.56;6276975;22;20775;-72
2021/09/20 02:46:10;;;;;;;0.70;0.70;;;;;;;11.28;100.00;-20988.84;6250088;22;20413;-72
2021/09/20 02:48:37;;;;;;;0.80;0.70;;;;;;;11.35;100.00;-20990.91;6249396;22;20465;-72
2021/09/20 02:51:06;;;;;;;0.70;0.60;;;;;;;11.30;100.00;-20989.53;6249759;22;20473;-72
2021/09/20 02:53:32;;;;;;;0.70;0.60;;;;;;;11.30;100.00;-20989.41;6276137;22;20410;-72
2021/09/20 02:55:59;;;;;;;0.70;0.60;;;;;;;11.21;100.00;-20986.91;6249021;22;20385;-72
2021/09/20 02:58:26;;;;;;;2.20;1.37;;;;;;;11.20;100.00;-20986.78;6249272;22;20448;-72
2021/09/20 03:00:53;;;;;;;0.70;0.60;;;;;;;11.17;100.00;-20985.94;6276419;22;20389;-72
2021/09/20 03:03:21;;;;;;;0.70;0.60;;;;;;;11.13;100.00;-20984.97;6248260;22;20413;-73
2021/09/20 03:05:48;;;;;;;0.70;0.60;;;;;;;11.13;100.00;-20984.84;6276594;22;20418;-72
2021/09/20 03:08:17;;;;;;;1.07;0.97;;;;;;;11.05;100.00;-20982.75;6248738;22;20433;-71
2021/09/20 03:10:44;;;;;;;0.80;0.70;;;;;;;11.07;100.00;-20983.19;6248656;22;20416;-72
2021/09/20 03:13:10;;;;;;;0.70;0.60;;;;;;;11.06;100.00;-20983.03;6249377;22;20447;-72
2021/09/20 03:15:39;;;;;;;0.70;0.60;;;;;;;11.04;100.00;-20982.47;6277197;22;20751;-72
2021/09/20 03:18:06;;;;;;;0.70;0.60;;;;;;;10.98;100.00;-20980.69;6249168;22;20437;-72
2021/09/20 03:20:36;;;;;;;0.70;0.60;;;;;;;10.89;100.00;-20978.34;6278663;22;20678;-72
2021/09/20 03:23:03;;;;;;;0.70;0.60;;;;;;;10.92;100.00;-20979.16;6226009;22;20487;-72
2021/09/20 03:25:31;;;;;;;0.70;0.60;;;;;;;10.88;100.00;-20978.06;6277588;22;20386;-71
2021/09/20 03:27:58;;;;;;;0.70;0.60;;;;;;;10.95;100.00;-20980.00;6277800;22;20821;-72
2021/09/20 03:30:26;;;;;;;0.80;0.70;;;;;;;10.96;100.00;-20873.16;6278388;22;20389;-72
2021/09/20 03:32:55;;;;;;;0.70;0.60;;;;;;;11.05;100.00;-20790.41;6278380;22;20371;-72
2021/09/20 03:35:24;;;;;;;0.80;0.70;;;;;;;11.07;100.00;-20610.34;6277599;22;20470;-72
2021/09/20 03:37:52;;;;;;;0.70;0.70;;;;;;;11.07;100.00;-20540.28;6251420;22;20406;-72
2021/09/20 03:40:20;;;;;;;0.70;0.60;;;;;;;11.11;100.00;-20486.22;6277813;22;20421;-72
2021/09/20 03:42:48;;;;;;;0.70;0.60;;;;;;;11.18;100.00;-20487.81;6277832;22;20393;-72
2021/09/20 03:45:15;;;;;;;1.20;0.87;;;;;;;11.30;100.00;-20355.63;6251539;22;20409;-72
2021/09/20 03:47:43;;;;;;;0.70;0.60;;;;;;;11.20;100.00;-20340.44;6277614;22;20746;-72
2021/09/20 03:50:13;;;;;;;0.70;0.60;;;;;;;11.34;100.00;-20502.16;6278046;22;20746;-72
2021/09/20 03:52:42;;;;;;;0.80;0.70;;;;;;;11.40;100.00;-20862.38;6278027;22;20417;-72
2021/09/20 03:55:09;;;;;;;0.70;0.60;;;;;;;11.49;100.00;-20994.50;6249252;22;20883;-71
2021/09/20 03:57:36;;;;;;;0.80;0.63;;;;;;;11.64;100.00;-20998.50;6278210;22;20391;-73
2021/09/20 04:00:07;;;;;;;0.70;0.60;;;;;;;11.69;100.00;-21000.03;6250658;22;20732;-72
2021/09/20 04:02:34;;;;;;;0.70;0.60;;;;;;;11.77;100.00;-21002.09;6277425;22;20370;-73
2021/09/20 04:05:02;;;;;;;0.70;0.67;;;;;;;11.91;100.00;-21005.97;6251393;22;20843;-71
2021/09/20 04:07:33;;;;;;;0.73;0.73;;;;;;;12.07;100.00;-21010.41;6277775;22;20761;-72
2021/09/20 04:10:01;;;;;;;0.70;0.70;;;;;;;12.16;100.00;-21012.75;6250257;22;20844;-72
2021/09/20 04:12:28;;;;;;;0.80;0.73;;;;;;;12.28;100.00;-21015.91;6277397;22;20914;-72
2021/09/20 04:14:55;;;;;;;0.80;0.70;;;;;;;12.12;100.00;-21011.63;6276999;22;20415;-72
2021/09/20 04:17:23;;;;;;;0.80;0.77;;;;;;;12.16;100.00;-21012.59;6251133;22;20385;-72
2021/09/20 04:19:50;;;;;;;0.70;0.70;;;;;;;12.33;100.00;-21017.44;6250539;22;20416;-72
2021/09/20 04:22:17;;;;;;;1.63;1.53;;;;;;;12.43;100.00;-21020.06;6251381;22;20383;-71
2021/09/20 04:24:44;;;;;;;0.80;0.70;;;;;;;12.49;100.00;-21021.59;6277215;22;20391;-71
2021/09/20 04:27:11;;;;;;;0.70;0.60;;;;;;;12.58;100.00;-21024.19;6276621;22;20452;-72
2021/09/20 04:29:38;;;;;;;0.70;0.70;;;;;;;12.60;100.00;-21024.63;6251047;22;20425;-72
2021/09/20 04:32:05;;;;;;;0.80;0.70;;;;;;;12.38;100.00;-21018.69;6250121;22;20375;-72
2021/09/20 04:34:33;;;;;;;0.70;0.60;;;;;;;12.39;100.00;-21018.81;6277020;22;20424;-72
2021/09/20 04:37:00;;;;;;;0.80;0.70;;;;;;;12.32;100.00;-21017.03;6277461;22;20418;-72
2021/09/20 04:39:27;;;;;;;1.83;1.73;;;;;;;12.35;100.00;-21017.84;6249726;22;20423;-72
2021/09/20 04:41:54;;;;;;;0.70;0.63;;;;;;;12.40;100.00;-21019.22;6276817;22;20371;-71
2021/09/20 04:44:21;;;;;;;0.70;0.60;;;;;;;12.33;100.00;-21017.28;6249760;22;20461;-72
2021/09/20 04:46:48;;;;;;;1.30;1.20;;;;;;;12.28;100.00;-21015.91;6276262;22;20425;-71
2021/09/20 04:49:15;;;;;;;0.70;0.60;;;;;;;12.07;100.00;-21010.41;6277147;22;20423;-72
2021/09/20 04:51:44;;;;;;;0.70;0.60;;;;;;;11.88;100.00;-21005.16;6250232;22;20441;-71
2021/09/20 04:54:11;;;;;;;0.80;0.70;;;;;;;11.71;100.00;-21000.44;6275797;22;20408;-71
2021/09/20 04:56:37;;;;;;;0.70;0.60;;;;;;;11.60;100.00;-20997.69;6224423;22;20421;-71
2021/09/20 04:59:05;;;;;;;0.80;0.70;;;;;;;11.56;100.00;-20996.59;6277332;22;20882;-71
2021/09/20 05:01:32;;;;;;;1.20;1.10;;;;;;;11.52;100.00;-20995.34;6249815;22;20372;-71
2021/09/20 05:03:59;;;;;;;0.80;0.70;;;;;;;11.41;100.00;-20992.44;6249231;22;20494;-71
2021/09/20 05:06:26;;;;;;;0.70;0.60;;;;;;;11.46;100.00;-20993.81;6275765;22;20418;-72
2021/09/20 05:08:57;;;;;;;0.70;0.60;;;;;;;11.33;100.00;-20990.34;6274933;22;20476;-71
2021/09/20 05:11:26;;;;;;;0.70;0.60;;;;;;;11.19;100.00;-20986.50;6274647;22;20512;-71
2021/09/20 05:13:53;;;;;;;0.77;0.70;;;;;;;11.17;100.00;-20985.81;6247285;22;20392;-71
2021/09/20 05:16:21;;;;;;;0.70;0.63;;;;;;;11.13;100.00;-20984.97;6247007;22;20838;-71
2021/09/20 05:18:48;;;;;;;0.77;0.70;;;;;;;11.09;100.00;-20983.72;6276100;22;20903;-71
2021/09/20 05:21:15;;;;;;;0.70;0.63;;;;;;;11.13;100.00;-20984.84;6249049;22;20426;-72
2021/09/20 05:23:44;;;;;;;0.70;0.60;;;;;;;11.19;100.00;-20986.34;6248054;22;20520;-71
2021/09/20 05:26:13;;;;;;;0.70;0.60;;;;;;;11.30;100.00;-20989.53;6249921;22;20872;-71
2021/09/20 05:28:40;;;;;;;0.70;0.67;;;;;;;11.48;100.00;-20994.38;6276900;22;20385;-71
2021/09/20 05:31:07;;;;;;;0.80;0.70;;;;;;;11.63;100.00;-20998.25;6276256;22;20835;-71
2021/09/20 05:33:35;;;;;;;0.70;0.70;;;;;;;11.78;100.00;-21002.53;6249105;22;20462;-72
2021/09/20 05:36:02;;;;;;;0.70;0.70;;;;;;;11.87;100.00;-21004.88;6276890;22;20730;-71
2021/09/20 05:38:29;;;;;;;0.80;0.70;;;;;;;11.94;100.00;-21006.81;6248714;22;20430;-71
2021/09/20 05:40:56;;;;;;;0.70;0.60;;;;;;;11.99;100.00;-21008.06;6249798;22;20383;-72
2021/09/20 05:43:25;;;;;;;0.80;0.70;;;;;;;12.17;100.00;-21012.88;6276284;22;20402;-71
2021/09/20 05:45:52;;;;;;;0.70;0.70;;;;;;;12.36;100.00;-21018.00;6276393;22;20875;-72
2021/09/20 05:48:20;;;;;;;0.80;0.70;;;;;;;12.46;100.00;-21020.88;6249481;22;20502;-71
2021/09/20 05:50:47;;;;;;;0.70;0.60;;;;;;;12.54;100.00;-21023.09;6276046;22;20379;-72
2021/09/20 05:53:15;;;;;;;0.70;0.60;;;;;;;12.62;100.00;-21025.03;6276438;22;20909;-71
2021/09/20 05:55:43;;;;;;;0.70;0.60;;;;;;;12.66;100.00;-21026.28;6249322;22;20406;-72
2021/09/20 05:58:12;;;;;;;0.80;0.70;;;;;;;12.73;100.00;-21028.06;6276440;22;20375;-71
2021/09/20 06:00:41;;;;;;;0.73;0.67;;;;;;;12.87;100.00;-21031.78;6276414;22;20420;-72
2021/09/20 06:03:08;;;;;;;0.73;0.70;;;;;;;12.98;100.00;-21034.81;6276451;22;20750;-72
2021/09/20 06:05:38;;;;;;;0.70;0.60;;;;;;;13.09;100.00;-21037.72;6276432;22;20371;-72
2021/09/20 06:08:06;;;;;;;0.70;0.60;;;;;;;13.12;100.00;-21038.69;6275410;22;20491;-72
2021/09/20 06:10:33;;;;;;;0.70;0.70;;;;;;;13.24;100.00;-21042.00;6248544;22;20395;-72
2021/09/20 06:13:00;;;;;;;0.70;0.60;;;;;;;13.35;100.00;-21044.88;6276513;22;20393;-71
2021/09/20 06:15:28;;;;;;;0.70;0.70;;;;;;;13.41;100.00;-21046.53;6276542;22;20371;-72
2021/09/20 06:17:57;;;;;;;0.70;0.60;;;;;;;13.52;100.00;-21049.56;6276428;22;20471;-72
2021/09/20 06:20:24;;;;;;;0.90;0.90;;;;;;;13.58;100.00;-21050.97;6276173;22;20371;-72
2021/09/20 06:22:51;;;;;;;0.80;0.70;;;;;;;13.67;100.00;-21053.44;6223824;22;20426;-72
2021/09/20 06:25:18;;;;;;;1.10;1.00;;;;;;;13.68;100.00;-21053.72;6275247;22;20718;-72
2021/09/20 06:28:05;;;;;;;0.70;0.60;;;;;;;13.68;100.00;-21053.72;6276315;22;20746;-72
2021/09/20 06:30:32;;;;;;;3.50;1.77;;;;;;;13.53;100.00;-21049.84;6249410;22;20378;-73
2021/09/20 06:33:01;;;;;;;0.70;0.70;;;;;;;13.60;100.00;-21051.50;6276311;22;20392;-73
2021/09/20 06:35:28;;;;;;;4.30;1.50;;;;;;;13.66;100.00;-21053.16;6249341;22;20404;-72
2021/09/20 06:37:59;;;;;;;0.70;0.60;;;;;;;13.56;100.00;-21050.41;6248702;22;20427;-72
2021/09/20 06:40:28;;;;;;;0.80;0.70;;;;;;;13.59;100.00;-21051.22;6249084;22;20384;-72
2021/09/20 06:42:55;;;;;;;0.70;0.60;;;;;;;13.67;100.00;-21053.44;6248747;22;20433;-72
2021/09/20 06:45:23;;;;;;;0.70;0.60;;;;;;;13.65;100.00;-21052.88;6249575;22;20410;-73
2021/09/20 06:47:50;;;;;;;0.77;0.70;;;;;;;13.66;100.00;-21053.16;6276230;22;20422;-72
2021/09/20 06:50:19;;;;;;;0.70;0.60;;;;;;;13.68;100.00;-21053.72;6249431;22;20942;-72
2021/09/20 06:52:46;;;;;;;0.83;0.77;;;;;;;13.68;100.00;-21053.84;6276527;22;20469;-72
2021/09/20 06:55:14;;;;;;;0.70;0.70;;;;;;;13.66;100.00;-21053.31;6223651;22;20404;-72
2021/09/20 06:57:41;;;;;;;0.70;0.60;;;;;;;13.69;100.00;-21054.00;6277744;22;20444;-72
2021/09/20 07:00:12;;;;;;;0.70;0.60;;;;;;;13.65;100.00;-21053.03;6250702;22;20581;-72
2021/09/20 07:02:39;;;;;;;0.90;0.90;;;;;;;13.78;100.00;-21056.47;6250399;22;20379;-72
2021/09/20 07:05:11;;;;;;;0.70;0.70;;;;;;;13.89;100.00;-21059.38;6278107;22;20429;-73
2021/09/20 07:07:40;;;;;;;0.77;0.70;;;;;;;14.05;100.00;-21063.63;6278075;22;20425;-73
2021/09/20 07:10:08;;;;;;;1.37;0.83;;;;;;;14.05;100.00;-21063.63;6277728;22;20459;-72
2021/09/20 07:12:35;;;;;;;0.80;0.70;;;;;;;14.07;100.00;-21064.19;6277869;22;20774;-72
2021/09/20 07:15:06;;;;;;;0.80;0.80;;;;;;;13.88;100.00;-21059.09;6278014;22;20878;-72
2021/09/20 07:17:34;;;;;;;0.80;0.70;;;;;;;13.97;100.00;-21061.56;6277145;22;20368;-72
2021/09/20 07:20:01;;;;;;;0.80;0.70;;;;;;;13.91;100.00;-21060.03;6250960;22;20864;-73
2021/09/20 07:22:29;;;;;;;1.07;0.87;;;;;;;13.86;100.00;-21058.53;6250651;22;20627;-72
2021/09/20 07:24:58;;;;;;;0.70;0.70;;;;;;;14.08;100.00;-21064.47;6276549;22;20420;-72
2021/09/20 07:27:24;;;;;;;0.70;0.70;;;;;;;14.11;100.00;-21065.28;6250583;22;20503;-72
2021/09/20 07:29:51;;;;;;;0.70;0.70;;;;;;;14.29;100.00;-21070.09;6250767;22;20410;-72
2021/09/20 07:32:19;;;;;;;0.70;0.70;;;;;;;14.48;100.00;-21075.34;6250511;22;20403;-72
2021/09/20 07:34:46;;;;;;;0.70;0.67;;;;;;;14.65;100.00;-21080.00;6277254;22;20395;-72
2021/09/20 07:37:14;;;;;;;0.83;0.83;;;;;;;14.71;100.00;-21081.53;6277622;22;20374;-71
2021/09/20 07:39:46;;;;;;;0.80;0.70;;;;;;;14.81;100.00;-21084.28;6250748;22;20364;-72
2021/09/20 07:42:14;;;;;;;0.70;0.60;;;;;;;14.75;100.00;-21082.63;6277710;22;20395;-72
2021/09/20 07:44:41;;;;;;;0.70;0.60;;;;;;;14.98;100.00;-21088.97;6250779;22;20413;-72
2021/09/20 07:47:08;;;;;;;0.70;0.70;;;;;;;14.96;100.00;-21088.28;6225627;22;20439;-71
2021/09/20 07:49:35;;;;;;;0.70;0.60;;;;;;;15.00;100.00;-21089.38;6277798;22;20433;-72
2021/09/20 07:52:02;;;;;;;0.80;0.80;;;;;;;15.22;100.00;-21095.44;6250794;22;20844;-73
2021/09/20 07:54:28;;;;;;;0.80;0.70;;;;;;;15.14;100.00;-21093.09;6248753;22;20450;-72
2021/09/20 07:56:55;;;;;;;0.80;0.70;;;;;;;15.48;100.00;-21102.16;6277628;22;20394;-73
2021/09/20 07:59:24;;;;;;;1.10;1.00;;;;;;;15.91;100.00;-21114.00;6250244;22;20874;-73
2021/09/20 08:01:53;;;;;;;0.70;0.63;;;;;;;16.14;100.00;-21120.03;6277432;22;20391;-74
2021/09/20 08:04:20;;;;;;;0.80;0.70;;;;;;;15.85;100.00;-21112.34;6250507;22;20705;-73
2021/09/20 08:06:47;;;;;;;0.80;0.70;;;;;;;16.28;100.00;-21123.88;6249898;22;20390;-75
2021/09/20 08:09:15;;;;;;;0.70;0.60;;;;;;;16.10;100.00;-21118.94;6277391;22;20929;-74
2021/09/20 08:11:42;;;;;;;0.80;0.70;;;;;;;16.60;100.00;-21132.53;6249493;22;20500;-72
2021/09/20 08:14:09;;;;;;;1.00;0.90;;;;;;;16.79;100.00;-21137.63;6276730;22;20393;-74
2021/09/20 08:16:38;;;;;;;1.00;0.93;;;;;;;17.01;100.00;-21143.50;6251256;22;20372;-74
2021/09/20 08:19:08;;;;;;;0.80;0.60;;;;;;;16.67;100.00;-21134.31;6250638;22;20375;-73
2021/09/20 08:21:39;;;;;;;1.20;1.10;;;;;;;16.98;100.00;-21142.56;6251224;22;20746;-73
2021/09/20 08:24:06;;;;;;;0.70;0.60;;;;;;;16.79;100.00;-21137.63;6277166;22;20407;-73
2021/09/20 08:26:32;;;;;;;1.17;1.07;;;;;;;17.19;100.00;-21148.31;6277938;22;20804;-72
2021/09/20 08:28:59;;;;;;;0.77;0.67;;;;;;;17.32;100.00;-21151.88;6277104;22;20783;-74
2021/09/20 08:31:27;;;;;;;1.00;0.90;;;;;;;17.89;100.00;-21167.09;6249991;22;20390;-72
2021/09/20 08:33:55;;;;;;;0.80;0.60;;;;;;;18.50;100.00;-21183.41;6277574;22;20386;-73
2021/09/20 08:36:22;;;;;;;0.80;0.70;;;;;;;18.55;100.00;-21184.91;6277718;22;20950;-73
2021/09/20 08:38:49;;;;;;;0.83;0.80;;;;;;;19.28;100.00;-21204.34;6250172;22;20377;-74
2021/09/20 08:41:17;;;;;;;0.70;0.60;;;;;;;19.35;100.00;-21206.13;6277505;22;20445;-73
2021/09/20 08:43:45;;;;;;;0.90;0.80;;;;;;;19.14;100.00;-21200.66;6250064;22;20402;-74
2021/09/20 08:46:12;;;;;;;0.80;0.77;;;;;;;19.50;100.00;-21210.22;6250262;22;20478;-73
2021/09/20 08:48:42;;;;;;;0.80;0.70;;;;;;;20.20;100.00;-21229.06;6249764;22;21012;-72
2021/09/20 08:51:12;;;;;;;0.97;0.87;;;;;;;20.31;100.00;-21231.81;6249735;22;20432;-72
2021/09/20 08:53:39;;;;;;;1.90;1.03;;;;;;;20.64;100.00;-21240.81;6249757;22;20419;-72
2021/09/20 08:56:06;;;;;;;0.80;0.67;;;;;;;21.02;100.00;-21250.91;6276834;22;20393;-73
2021/09/20 08:58:33;;;;;;;0.70;0.50;;;;;;;21.64;100.00;-21267.44;6249728;22;20402;-73
2021/09/20 09:01:01;;;;;;;3.57;0.90;;;;;;;21.79;100.00;-21271.38;6250115;22;20875;-71
2021/09/20 09:03:29;;;;;;;0.77;0.63;;;;;;;21.79;100.00;-21271.50;6276416;22;20382;-70
2021/09/20 09:05:58;;;;;;;1.00;0.80;;;;;;;21.34;100.00;-21259.53;6250440;22;20391;-73
2021/09/20 09:08:36;;;;;;;0.70;0.60;;;;;;;22.00;100.00;-21276.97;6223501;22;20961;-71
2021/09/20 09:11:05;;;;;;;0.70;0.50;;;;;;;22.16;100.00;-21281.47;6276990;22;20374;-70
2021/09/20 09:13:34;;;;;;;0.70;0.60;;;;;;;21.73;100.00;-21269.88;6224485;22;20475;-73
2021/09/20 09:16:15;;;;;;;0.70;0.50;;;;;;;22.10;100.00;-21279.81;6250975;22;20367;-71
2021/09/20 09:19:05;;;;;;;1.00;0.70;;;;;;;22.61;100.00;-21293.31;6250280;22;20366;-71
2021/09/20 09:21:34;;;;;;;0.70;0.60;;;;;;;22.55;100.00;-21291.69;6276443;22;21011;-71
2021/09/20 09:24:05;;;;;;;0.80;0.63;;;;;;;21.67;100.00;-21268.38;6224283;22;20505;-72
2021/09/20 09:26:32;;;;;;;0.70;0.60;;;;;;;20.66;100.00;-21241.38;6250115;22;20843;-71
2021/09/20 09:29:07;;;;;;;0.80;0.70;;;;;;;20.77;100.00;-21244.25;6275602;22;20419;-73
2021/09/20 09:31:36;;;;;;;0.70;0.60;;;;;;;20.56;100.00;-21238.66;6276853;22;20390;-73
2021/09/20 09:34:19;;;;;;;1.10;1.00;;;;;;;20.15;100.00;-21227.56;6276268;22;20387;-73
2021/09/20 09:36:47;;;;;;;0.70;0.60;;;;;;;19.91;100.00;-21221.16;6249043;22;20399;-73
2021/09/20 09:39:26;;;;;;;0.80;0.70;;;;;;;19.63;100.00;-21213.63;6276374;22;20399;-73
2021/09/20 09:41:53;;;;;;;0.80;0.70;;;;;;;20.01;100.00;-21223.88;6276770;22;20367;-73
2021/09/20 09:44:31;;;;;;;0.73;0.63;;;;;;;19.76;100.00;-21217.19;6276332;22;20387;-74
2021/09/20 09:46:59;;;;;;;0.80;0.80;;;;;;;20.01;100.00;-21224.03;6275986;22;20375;-73
2021/09/20 09:49:27;;;;;;;1.33;0.87;;;;;;;20.33;100.00;-21232.34;6249509;22;20434;-73
2021/09/20 09:52:00;;;;;;;0.77;0.60;;;;;;;20.75;100.00;-21243.81;6276908;22;20394;-73
2021/09/20 09:54:31;;;;;;;0.70;0.60;;;;;;;21.02;100.00;-21250.78;6275655;22;20373;-73
2021/09/20 09:57:16;;;;;;;0.80;0.70;;;;;;;20.15;100.00;-21227.72;6249568;22;20381;-73
2021/09/20 09:59:54;;;;;;;0.90;0.70;;;;;;;20.74;100.00;-21243.56;6276229;22;20378;-73
2021/09/20 10:02:25;;;;;;;0.70;0.60;;;;;;;20.39;100.00;-21234.13;6248919;22;20399;-73
2021/09/20 10:04:55;;;;;;;0.70;0.60;;;;;;;19.89;100.00;-21220.75;6249364;22;20343;-73
2021/09/20 10:07:24;;;;;;;0.80;0.73;;;;;;;19.36;100.00;-21206.38;6276526;22;20373;-72
2021/09/20 10:09:54;;;;;;;0.90;0.70;;;;;;;19.30;100.00;-21205.03;6275200;22;20393;-73
2021/09/20 10:12:26;;;;;;;0.80;0.70;;;;;;;19.32;100.00;-21205.44;6276209;22;20456;-72
2021/09/20 10:14:56;;;;;;;0.77;0.63;;;;;;;19.25;100.00;-21203.66;6275548;22;20696;-73
2021/09/20 10:17:24;;;;;;;0.87;0.80;;;;;;;19.63;100.00;-21213.78;6249047;22;20856;-73
2021/09/20 10:19:52;;;;;;;0.80;0.70;;;;;;;19.52;100.00;-21210.75;6248926;22;20384;-73
2021/09/20 10:22:19;;;;;;;0.80;0.70;;;;;;;19.42;100.00;-21208.03;6276018;22;20783;-74
2021/09/20 10:24:49;;;;;;;0.87;0.80;;;;;;;19.36;100.00;-21206.38;6275585;22;20441;-74
2021/09/20 10:27:20;;;;;;;0.70;0.60;;;;;;;19.43;100.00;-21208.31;6276396;22;20372;-74
2021/09/20 10:29:51;;;;;;;0.80;0.70;;;;;;;19.48;100.00;-21209.66;6275653;22;20411;-73
2021/09/20 10:32:19;;;;;;;1.00;0.90;;;;;;;19.46;100.00;-21209.25;6223919;22;20453;-74
2021/09/20 10:34:49;;;;;;;0.73;0.70;;;;;;;19.67;100.00;-21214.88;6249000;22;20414;-74
2021/09/20 10:37:24;;;;;;;0.90;0.90;;;;;;;19.96;100.00;-21222.53;6249178;22;20391;-74
2021/09/20 10:39:57;;;;;;;1.00;0.90;;;;;;;19.73;100.00;-21216.50;6222924;22;20394;-73
2021/09/20 10:42:52;;;;;;;0.87;0.87;;;;;;;20.10;100.00;-21226.34;6249362;22;20425;-73
2021/09/20 10:45:50;;;;;;;0.80;0.70;;;;;;;19.85;100.00;-21219.53;6249021;22;20384;-73
2021/09/20 10:48:40;;;;;;;0.70;0.60;;;;;;;20.38;100.00;-21233.72;6276297;22;20895;-73
2021/09/20 10:51:22;;;;;;;1.40;0.90;;;;;;;20.39;100.00;-21234.00;6248822;22;20446;-73
2021/09/20 10:54:13;;;;;;;0.70;0.60;;;;;;;20.49;100.00;-21236.72;6275023;22;20468;-73
2021/09/20 10:56:41;;;;;;;0.80;0.70;;;;;;;20.51;100.00;-21237.28;6248966;22;20395;-74
2021/09/20 10:59:24;;;;;;;0.80;0.70;;;;;;;20.42;100.00;-21234.81;6276799;22;20826;-73
2021/09/20 11:02:04;;;;;;;0.70;0.70;;;;;;;20.41;100.00;-21234.53;6276198;22;20428;-73
2021/09/20 11:04:37;;;;;;;0.80;0.70;;;;;;;20.41;100.00;-21234.69;6275803;22;20342;-73
2021/09/20 11:07:19;;;;;;;0.80;0.70;;;;;;;20.44;100.00;-21235.50;6276519;22;20703;-73
2021/09/20 11:09:49;;;;;;;0.77;0.70;;;;;;;20.60;100.00;-21239.59;6275544;22;20411;-73
2021/09/20 11:12:19;;;;;;;0.70;0.60;;;;;;;19.98;100.00;-21223.19;6248490;22;20401;-72
2021/09/20 11:15:06;;;;;;;0.70;0.60;;;;;;;20.37;100.00;-21233.44;6275986;22;20746;-73
2021/09/20 11:17:46;;;;;;;0.80;0.70;;;;;;;20.78;100.00;-21244.38;6234041;22;20385;-73
2021/09/20 11:20:21;;;;;;;1.17;1.00;;;;;;;20.73;100.00;-21243.28;6224114;22;20367;-73
2021/09/20 11:23:10;;;;;;;1.17;1.07;;;;;;;20.64;100.00;-21240.81;6248776;22;20436;-74
2021/09/20 11:25:37;;;;;;;2.07;1.27;;;;;;;21.17;100.00;-21255.03;6275454;22;20450;-73
2021/09/20 11:28:04;;;;;;;1.00;0.93;;;;;;;21.13;100.00;-21253.78;6248476;22;20894;-72